^^
Station Historical Data
Daily Summary for August 8, 2021 Units:  English    Metric   Both
Daily Weekly Monthly Yearly
  High: Low: Average:
Temperature: 81.1 °F 70.3 °F 74.3 °F
Dew Point: 75.5 °F 67.4 °F 70.6 °F
Humidity: 92% 80% 88%
Wind Speed: 3mph 1mph 1.5mph
Wind Gust: 4mph - -
Wind- - ESE
Pressure: 29.93 in 29.83 in -
Precipitation: 0.37 in    
 
 
Tabular Data for August 8, 2021
Time Temperature Dew Point Pressure Wind Wind Speed Wind Gust Humidity Rainfall Rate (Hourly) solar
00:00 71.3 °F 67.9 °F 29.92 in ESE 2 mph 2 mph 89% 0.00 in 0 W/m2
00:05 71.3 °F 67.9 °F 29.92 in SE 1 mph 2 mph 89% 0.00 in 0 W/m2
00:10 71.3 °F 67.9 °F 29.92 in SE 1 mph 1 mph 89% 0.00 in 0 W/m2
00:15 71.3 °F 67.9 °F 29.92 in SE 1 mph 1 mph 89% 0.00 in 0 W/m2
00:20 71.2 °F 67.8 °F 29.91 in SSE 1 mph 2 mph 89% 0.00 in 0 W/m2
00:25 71.2 °F 68.1 °F 29.92 in SE 1 mph 2 mph 90% 0.00 in 0 W/m2
00:30 71.2 °F 68.1 °F 29.92 in SE 1 mph 2 mph 90% 0.00 in 0 W/m2
00:35 71.1 °F 67.7 °F 29.92 in SE 1 mph 2 mph 89% 0.00 in 0 W/m2
00:40 71 °F 67.9 °F 29.92 in ESE 1 mph 1 mph 90% 0.00 in 0 W/m2
00:45 71.1 °F 68 °F 29.92 in ESE 1 mph 1 mph 90% 0.00 in 0 W/m2
00:50 71 °F 67.9 °F 29.92 in North 1 mph 1 mph 90% 0.00 in 0 W/m2
00:55 71 °F 67.9 °F 29.91 in ESE 1 mph 2 mph 90% 0.00 in 0 W/m2
01:00 71.1 °F 68 °F 29.91 in East 1 mph 1 mph 90% 0.00 in 0 W/m2
01:05 71 °F 67.9 °F 29.91 in SE 1 mph 1 mph 90% 0.00 in 0 W/m2
01:10 71.1 °F 68 °F 29.91 in SE 1 mph 2 mph 90% 0.00 in 0 W/m2
01:15 71 °F 67.9 °F 29.91 in SSE 1 mph 2 mph 90% 0.00 in 0 W/m2
01:20 71.1 °F 68 °F 29.91 in SE 1 mph 2 mph 90% 0.00 in 0 W/m2
01:25 71 °F 67.9 °F 29.92 in West 1 mph 2 mph 90% 0.00 in 0 W/m2
01:30 71 °F 67.9 °F 29.91 in NNE 1 mph 1 mph 90% 0.00 in 0 W/m2
01:35 71 °F 67.9 °F 29.91 in West 1 mph 1 mph 90% 0.00 in 0 W/m2
01:40 71.1 °F 68 °F 29.91 in SSW 1 mph 1 mph 90% 0.00 in 0 W/m2
01:45 71 °F 68.2 °F 29.91 in ESE 2 mph 2 mph 91% 0.00 in 0 W/m2
01:50 71.1 °F 68.3 °F 29.91 in SE 2 mph 2 mph 91% 0.00 in 0 W/m2
01:55 71.1 °F 68.3 °F 29.90 in SE 2 mph 2 mph 91% 0.00 in 0 W/m2
02:00 71 °F 68.2 °F 29.90 in SE 2 mph 2 mph 91% 0.00 in 0 W/m2
02:05 71 °F 68.2 °F 29.90 in SE 2 mph 2 mph 91% 0.00 in 0 W/m2
02:10 70.9 °F 68.1 °F 29.90 in ESE 2 mph 2 mph 91% 0.00 in 0 W/m2
02:15 70.9 °F 68.1 °F 29.89 in WSW 2 mph 2 mph 91% 0.00 in 0 W/m2
02:20 70.9 °F 68.1 °F 29.89 in SSW 2 mph 2 mph 91% 0.00 in 0 W/m2
02:25 70.8 °F 68 °F 29.89 in East 2 mph 2 mph 91% 0.00 in 0 W/m2
02:30 70.8 °F 68 °F 29.89 in SE 2 mph 2 mph 91% 0.00 in 0 W/m2
02:35 70.8 °F 68 °F 29.88 in SSW 2 mph 2 mph 91% 0.00 in 0 W/m2
02:40 70.7 °F 67.9 °F 29.88 in ESE 2 mph 2 mph 91% 0.00 in 0 W/m2
02:45 70.7 °F 67.9 °F 29.87 in East 2 mph 2 mph 91% 0.00 in 0 W/m2
02:50 70.7 °F 67.9 °F 29.87 in ESE 2 mph 2 mph 91% 0.00 in 0 W/m2
02:55 70.6 °F 67.8 °F 29.87 in East 2 mph 2 mph 91% 0.00 in 0 W/m2
03:00 70.6 °F 68.2 °F 29.87 in SE 2 mph 2 mph 92% 0.00 in 0 W/m2
03:05 70.4 °F 68 °F 29.87 in SE 1 mph 2 mph 92% 0.00 in 0 W/m2
03:10 70.4 °F 68 °F 29.86 in SSE 1 mph 2 mph 92% 0.00 in 0 W/m2
03:15 70.4 °F 68 °F 29.87 in ESE 1 mph 2 mph 92% 0.00 in 0 W/m2
03:20 70.4 °F 68 °F 29.87 in SE 1 mph 1 mph 92% 0.00 in 0 W/m2
03:25 70.3 °F 67.9 °F 29.87 in South 2 mph 2 mph 92% 0.00 in 0 W/m2
03:30 70.4 °F 68 °F 29.87 in SE 2 mph 3 mph 92% 0.00 in 0 W/m2
03:35 70.4 °F 68 °F 29.87 in ESE 2 mph 3 mph 92% 0.00 in 0 W/m2
03:40 70.5 °F 68.1 °F 29.87 in ESE 2 mph 2 mph 92% 0.00 in 0 W/m2
03:45 70.5 °F 68.1 °F 29.87 in WNW 1 mph 2 mph 92% 0.00 in 0 W/m2
03:50 70.5 °F 68.1 °F 29.87 in SE 1 mph 2 mph 92% 0.00 in 0 W/m2
03:55 70.6 °F 68.2 °F 29.87 in SSE 1 mph 2 mph 92% 0.00 in 0 W/m2
04:00 70.6 °F 68.2 °F 29.87 in SE 1 mph 2 mph 92% 0.00 in 0 W/m2
04:05 70.7 °F 68.3 °F 29.87 in ESE 1 mph 2 mph 92% 0.00 in 0 W/m2
04:10 70.7 °F 68.3 °F 29.87 in SE 1 mph 1 mph 92% 0.00 in 0 W/m2
04:15 70.8 °F 68.4 °F 29.87 in SE 1 mph 1 mph 92% 0.00 in 0 W/m2
04:20 70.8 °F 68 °F 29.87 in East 1 mph 1 mph 91% 0.00 in 0 W/m2
04:25 70.8 °F 68 °F 29.87 in SE 1 mph 1 mph 91% 0.00 in 0 W/m2
04:30 70.8 °F 68 °F 29.87 in SE 1 mph 1 mph 91% 0.00 in 0 W/m2
04:35 70.9 °F 68.1 °F 29.87 in South 1 mph 2 mph 91% 0.00 in 0 W/m2
04:40 70.9 °F 68.1 °F 29.87 in SE 2 mph 2 mph 91% 0.00 in 0 W/m2
04:45 71 °F 68.2 °F 29.87 in ESE 1 mph 2 mph 91% 0.00 in 0 W/m2
04:50 71 °F 68.2 °F 29.87 in SE 1 mph 2 mph 91% 0.00 in 0 W/m2
04:55 71 °F 68.2 °F 29.86 in SE 1 mph 2 mph 91% 0.00 in 0 W/m2
05:00 71 °F 68.2 °F 29.86 in SE 1 mph 1 mph 91% 0.00 in 0 W/m2
05:05 71.1 °F 68.3 °F 29.86 in NE 1 mph 1 mph 91% 0.00 in 0 W/m2
05:10 71 °F 68.2 °F 29.86 in SSE 1 mph 1 mph 91% 0.00 in 0 W/m2
05:15 71.2 °F 68.4 °F 29.86 in ESE 1 mph 2 mph 91% 0.00 in 0 W/m2
05:20 71.2 °F 68.4 °F 29.86 in South 1 mph 1 mph 91% 0.00 in 0 W/m2
05:25 71.1 °F 68.3 °F 29.86 in SSW 1 mph 1 mph 91% 0.00 in 0 W/m2
05:30 71.2 °F 68.4 °F 29.86 in NE 1 mph 1 mph 91% 0.00 in 0 W/m2
05:35 71.3 °F 68.5 °F 29.86 in SE 1 mph 1 mph 91% 0.00 in 0 W/m2
05:40 71.3 °F 68.2 °F 29.86 in SE 1 mph 1 mph 90% 0.00 in 0 W/m2
05:45 71.4 °F 68.3 °F 29.87 in ENE 1 mph 1 mph 90% 0.00 in 0 W/m2
05:50 71.5 °F 68.4 °F 29.87 in NNE 1 mph 2 mph 90% 0.00 in 0 W/m2
05:55 71.7 °F 68.6 °F 29.87 in NNE 1 mph 2 mph 90% 0.00 in 0 W/m2
06:00 71.8 °F 68.7 °F 29.88 in NNE 1 mph 2 mph 90% 0.00 in 0 W/m2
06:05 71.8 °F 68.7 °F 29.88 in NNE 1 mph 2 mph 90% 0.00 in 0 W/m2
06:10 71.7 °F 68.3 °F 29.89 in SE 1 mph 1 mph 89% 0.00 in 0 W/m2
06:15 71.8 °F 68.4 °F 29.89 in NNE 1 mph 2 mph 89% 0.00 in 0 W/m2
06:20 71.9 °F 68.5 °F 29.89 in NNW 2 mph 2 mph 89% 0.00 in 0 W/m2
06:25 71.9 °F 68.8 °F 29.89 in NNE 2 mph 2 mph 90% 0.00 in 0 W/m2
06:30 71.9 °F 68.8 °F 29.89 in NNE 2 mph 2 mph 90% 0.00 in 0 W/m2
06:35 71.8 °F 68.7 °F 29.90 in NNE 2 mph 2 mph 90% 0.00 in 0 W/m2
06:40 71.9 °F 68.8 °F 29.90 in NNE 2 mph 2 mph 90% 0.00 in 0 W/m2
06:45 71.8 °F 68.7 °F 29.90 in East 1 mph 2 mph 90% 0.00 in 0 W/m2
06:50 71.8 °F 69 °F 29.89 in NE 1 mph 1 mph 91% 0.00 in 0 W/m2
06:55 71.8 °F 69 °F 29.89 in SSE 1 mph 1 mph 91% 0.00 in 0 W/m2
07:00 71.7 °F 68.6 °F 29.90 in East 1 mph 1 mph 90% 0.00 in 5 W/m2
07:05 71.5 °F 68.4 °F 29.89 in North 1 mph 1 mph 90% 0.00 in 9 W/m2
07:10 71.3 °F 68.5 °F 29.90 in NNE 2 mph 2 mph 91% 0.10 in 11 W/m2
07:15 71.2 °F 68.4 °F 29.89 in ESE 2 mph 2 mph 91% 0.10 in 16 W/m2
07:20 71.1 °F 68.3 °F 29.89 in ENE 2 mph 3 mph 91% 0.06 in 18 W/m2
07:25 71 °F 68.2 °F 29.90 in WSW 1 mph 3 mph 91% 0.04 in 21 W/m2
07:30 70.8 °F 68 °F 29.89 in East 1 mph 2 mph 91% 0.00 in 28 W/m2
07:35 70.7 °F 68.3 °F 29.89 in NE 1 mph 2 mph 92% 0.00 in 33 W/m2
07:40 70.7 °F 68.3 °F 29.90 in North 2 mph 2 mph 92% 0.00 in 32 W/m2
07:45 70.6 °F 68.2 °F 29.89 in North 2 mph 2 mph 92% 0.00 in 42 W/m2
07:50 70.5 °F 67.7 °F 29.89 in East 2 mph 2 mph 91% 0.00 in 51 W/m2
07:55 70.3 °F 67.5 °F 29.89 in ENE 2 mph 2 mph 91% 0.00 in 58 W/m2
08:00 70.4 °F 67.6 °F 29.89 in NNE 2 mph 2 mph 91% 0.00 in 58 W/m2
08:05 70.5 °F 67.7 °F 29.89 in NE 2 mph 2 mph 91% 0.00 in 58 W/m2
08:10 70.8 °F 67.4 °F 29.90 in North 2 mph 2 mph 89% 0.00 in 65 W/m2
08:15 70.9 °F 67.5 °F 29.89 in ESE 2 mph 2 mph 89% 0.00 in 67 W/m2
08:20 71 °F 67.6 °F 29.89 in NNE 2 mph 2 mph 89% 0.00 in 54 W/m2
08:25 70.9 °F 67.5 °F 29.90 in North 2 mph 2 mph 89% 0.00 in 46 W/m2
08:30 70.9 °F 67.5 °F 29.90 in NW 2 mph 2 mph 89% 0.00 in 51 W/m2
08:35 71 °F 67.6 °F 29.90 in NNW 2 mph 2 mph 89% 0.00 in 44 W/m2
08:40 71 °F 67.6 °F 29.90 in SE 2 mph 2 mph 89% 0.00 in 44 W/m2
08:45 71 °F 67.6 °F 29.90 in WSW 1 mph 2 mph 89% 0.00 in 46 W/m2
08:50 71.2 °F 67.8 °F 29.90 in North 1 mph 1 mph 89% 0.00 in 81 W/m2
08:55 71.3 °F 67.9 °F 29.90 in WSW 2 mph 2 mph 89% 0.00 in 76 W/m2
09:00 71.4 °F 68 °F 29.90 in East 2 mph 2 mph 89% 0.00 in 63 W/m2
09:05 71.3 °F 67.9 °F 29.90 in North 2 mph 2 mph 89% 0.00 in 56 W/m2
09:10 71.3 °F 67.9 °F 29.90 in South 2 mph 2 mph 89% 0.00 in 72 W/m2
09:15 71.3 °F 67.9 °F 29.90 in ESE 2 mph 4 mph 89% 0.00 in 60 W/m2
09:20 71.3 °F 67.6 °F 29.90 in ESE 2 mph 3 mph 88% 0.00 in 28 W/m2
09:25 71.2 °F 67.5 °F 29.90 in ENE 2 mph 3 mph 88% 0.00 in 18 W/m2
09:30 71.3 °F 67.6 °F 29.91 in NW 2 mph 2 mph 88% 0.00 in 9 W/m2
09:35 71.2 °F 67.5 °F 29.91 in West 2 mph 2 mph 88% 0.00 in 5 W/m2
09:40 71.2 °F 67.5 °F 29.91 in SE 3 mph 3 mph 88% 0.14 in 0 W/m2
09:45 71.1 °F 67.7 °F 29.91 in SE 2 mph 3 mph 89% 4.54 in 5 W/m2
09:50 71.1 °F 67.7 °F 29.92 in South 2 mph 2 mph 89% 0.24 in 11 W/m2
09:55 71.2 °F 68.1 °F 29.91 in ENE 2 mph 2 mph 90% 0.12 in 47 W/m2
10:00 71.3 °F 68.2 °F 29.91 in North 1 mph 1 mph 90% 0.06 in 33 W/m2
10:05 71.6 °F 68.2 °F 29.91 in ESE 1 mph 2 mph 89% 0.04 in 67 W/m2
10:10 71.8 °F 68.4 °F 29.91 in North 1 mph 2 mph 89% 0.00 in 72 W/m2
10:15 71.9 °F 68.5 °F 29.90 in SE 1 mph 2 mph 89% 0.00 in 116 W/m2
10:20 71.9 °F 68.5 °F 29.90 in NNW 1 mph 1 mph 89% 0.00 in 67 W/m2
10:25 71.9 °F 68.5 °F 29.90 in NE 1 mph 1 mph 89% 0.00 in 98 W/m2
10:30 71.9 °F 68.8 °F 29.91 in NNE 1 mph 2 mph 90% 0.00 in 105 W/m2
10:35 71.9 °F 68.8 °F 29.91 in SW 1 mph 2 mph 90% 0.00 in 125 W/m2
10:40 71.9 °F 68.8 °F 29.91 in ENE 1 mph 3 mph 90% 0.00 in 81 W/m2
10:45 71.9 °F 69.1 °F 29.91 in WNW 2 mph 3 mph 91% 0.00 in 114 W/m2
10:50 71.9 °F 69.1 °F 29.92 in NNE 2 mph 2 mph 91% 0.00 in 127 W/m2
10:55 71.9 °F 69.1 °F 29.92 in SE 2 mph 2 mph 91% 0.00 in 72 W/m2
11:00 71.8 °F 69 °F 29.92 in SE 1 mph 1 mph 91% 0.00 in 72 W/m2
11:05 71.8 °F 69 °F 29.92 in SE 1 mph 1 mph 91% 0.00 in 84 W/m2
11:10 71.9 °F 69.1 °F 29.92 in SW 1 mph 2 mph 91% 0.00 in 128 W/m2
11:15 72 °F 69.2 °F 29.92 in ESE 1 mph 2 mph 91% 0.00 in 163 W/m2
11:20 72.1 °F 69.3 °F 29.92 in SSE 1 mph 1 mph 91% 0.00 in 183 W/m2
11:25 72.2 °F 69.4 °F 29.92 in ESE 1 mph 2 mph 91% 0.00 in 193 W/m2
11:30 72.5 °F 69.7 °F 29.92 in ESE 1 mph 1 mph 91% 0.00 in 200 W/m2
11:35 72.6 °F 69.8 °F 29.92 in SE 1 mph 1 mph 91% 0.00 in 193 W/m2
11:40 72.8 °F 70 °F 29.92 in North 2 mph 2 mph 91% 0.00 in 178 W/m2
11:45 73 °F 70.2 °F 29.92 in South 2 mph 2 mph 91% 0.00 in 181 W/m2
11:50 73.1 °F 70 °F 29.91 in ESE 2 mph 2 mph 90% 0.00 in 183 W/m2
11:55 73.3 °F 70.5 °F 29.92 in SE 2 mph 2 mph 91% 0.00 in 200 W/m2
12:00 73.5 °F 70.7 °F 29.91 in South 2 mph 2 mph 91% 0.00 in 269 W/m2
12:05 73.7 °F 70.6 °F 29.91 in WSW 1 mph 2 mph 90% 0.00 in 227 W/m2
12:10 73.9 °F 70.8 °F 29.92 in WNW 1 mph 2 mph 90% 0.00 in 121 W/m2
12:15 73.9 °F 70.8 °F 29.92 in North 1 mph 2 mph 90% 0.00 in 83 W/m2
12:20 74 °F 71.2 °F 29.92 in NNE 1 mph 1 mph 91% 0.00 in 72 W/m2
12:25 74 °F 70.9 °F 29.92 in NE 1 mph 1 mph 90% 0.00 in 83 W/m2
12:30 74.1 °F 71 °F 29.92 in NE 1 mph 2 mph 90% 0.00 in 135 W/m2
12:35 74.3 °F 71.5 °F 29.92 in NE 1 mph 2 mph 91% 0.00 in 206 W/m2
12:40 74.4 °F 71.6 °F 29.92 in NE 1 mph 1 mph 91% 0.00 in 244 W/m2
12:45 74.6 °F 71.8 °F 29.92 in NNE 1 mph 1 mph 91% 0.00 in 197 W/m2
12:50 74.6 °F 71.5 °F 29.93 in NNE 1 mph 1 mph 90% 0.00 in 107 W/m2
12:55 74.6 °F 71.5 °F 29.92 in NE 1 mph 1 mph 90% 0.00 in 221 W/m2
13:00 74.7 °F 71.9 °F 29.92 in NE 1 mph 1 mph 91% 0.00 in 269 W/m2
13:05 74.9 °F 72.1 °F 29.92 in SW 1 mph 1 mph 91% 0.00 in 380 W/m2
13:10 75.2 °F 72.4 °F 29.92 in NNE 1 mph 1 mph 91% 0.00 in 418 W/m2
13:15 75.3 °F 72.2 °F 29.92 in NE 1 mph 2 mph 90% 0.00 in 320 W/m2
13:20 75.5 °F 72.4 °F 29.92 in North 1 mph 1 mph 90% 0.00 in 454 W/m2
13:25 75.6 °F 72.5 °F 29.92 in NNE 1 mph 1 mph 90% 0.00 in 519 W/m2
13:30 76 °F 72.9 °F 29.92 in North 2 mph 2 mph 90% 0.00 in 707 W/m2
13:35 76.3 °F 72.8 °F 29.92 in NNE 2 mph 2 mph 89% 0.00 in 464 W/m2
13:40 76.3 °F 72.8 °F 29.92 in NE 2 mph 2 mph 89% 0.00 in 311 W/m2
13:45 76.4 °F 72.6 °F 29.91 in NE 2 mph 2 mph 88% 0.00 in 311 W/m2
13:50 76.4 °F 72.9 °F 29.91 in East 1 mph 1 mph 89% 0.00 in 309 W/m2
13:55 76.5 °F 72.7 °F 29.91 in NNW 1 mph 1 mph 88% 0.00 in 515 W/m2
14:00 76.8 °F 73 °F 29.91 in NNE 1 mph 1 mph 88% 0.00 in 443 W/m2
14:05 76.9 °F 73.1 °F 29.91 in NE 1 mph 1 mph 88% 0.00 in 408 W/m2
14:10 77 °F 73.2 °F 29.90 in NNE 1 mph 1 mph 88% 0.00 in 503 W/m2
14:15 77.1 °F 73.3 °F 29.90 in NNE 2 mph 3 mph 88% 0.00 in 455 W/m2
14:20 77.3 °F 73.5 °F 29.90 in NE 2 mph 2 mph 88% 0.00 in 633 W/m2
14:25 77.4 °F 73.2 °F 29.90 in NNE 2 mph 2 mph 87% 0.00 in 585 W/m2
14:30 77.4 °F 72.9 °F 29.90 in NNE 2 mph 2 mph 86% 0.00 in 524 W/m2
14:35 77.5 °F 73.3 °F 29.90 in East 1 mph 2 mph 87% 0.00 in 336 W/m2
14:40 77.3 °F 72.8 °F 29.90 in West 1 mph 1 mph 86% 0.00 in 487 W/m2
14:45 77.6 °F 73.4 °F 29.90 in North 1 mph 1 mph 87% 0.00 in 879 W/m2
14:50 78 °F 73.8 °F 29.90 in NE 1 mph 1 mph 87% 0.00 in 779 W/m2
14:55 78 °F 73.8 °F 29.90 in NNW 1 mph 1 mph 87% 0.00 in 397 W/m2
15:00 77.9 °F 73.7 °F 29.90 in NNW 1 mph 2 mph 87% 0.00 in 306 W/m2
15:05 77.8 °F 73.6 °F 29.90 in East 1 mph 2 mph 87% 0.00 in 359 W/m2
15:10 77.9 °F 73.4 °F 29.89 in NNE 1 mph 1 mph 86% 0.00 in 721 W/m2
15:15 78 °F 73.5 °F 29.89 in NE 2 mph 3 mph 86% 0.00 in 555 W/m2
15:20 78.2 °F 74 °F 29.89 in NNE 2 mph 2 mph 87% 0.00 in 717 W/m2
15:25 78.3 °F 74.1 °F 29.89 in NE 1 mph 2 mph 87% 0.00 in 636 W/m2
15:30 78.4 °F 74.2 °F 29.89 in East 1 mph 1 mph 87% 0.00 in 385 W/m2
15:35 78.5 °F 74.3 °F 29.89 in North 1 mph 2 mph 87% 0.00 in 703 W/m2
15:40 78.6 °F 74.1 °F 29.88 in NE 1 mph 1 mph 86% 0.00 in 689 W/m2
15:45 78.8 °F 74.6 °F 29.88 in North 1 mph 1 mph 87% 0.00 in 628 W/m2
15:50 79 °F 74.5 °F 29.88 in NNE 2 mph 2 mph 86% 0.00 in 615 W/m2
15:55 79.2 °F 74.6 °F 29.88 in NNE 1 mph 2 mph 86% 0.00 in 642 W/m2
16:00 79.4 °F 74.5 °F 29.88 in NNE 1 mph 2 mph 85% 0.00 in 650 W/m2
16:05 79.5 °F 74.6 °F 29.87 in NNE 1 mph 3 mph 85% 0.00 in 621 W/m2
16:10 79.5 °F 74.6 °F 29.87 in NNW 1 mph 1 mph 85% 0.00 in 619 W/m2
16:15 79.7 °F 74.8 °F 29.87 in NE 2 mph 2 mph 85% 0.00 in 606 W/m2
16:20 79.9 °F 75 °F 29.87 in NNE 1 mph 1 mph 85% 0.00 in 517 W/m2
16:25 80 °F 74.7 °F 29.87 in NNW 1 mph 2 mph 84% 0.00 in 631 W/m2
16:30 80.1 °F 74.8 °F 29.87 in NE 2 mph 2 mph 84% 0.00 in 517 W/m2
16:35 80.1 °F 75.2 °F 29.87 in ENE 1 mph 2 mph 85% 0.00 in 257 W/m2
16:40 80 °F 74.7 °F 29.86 in NNE 1 mph 1 mph 84% 0.00 in 315 W/m2
16:45 80.1 °F 75.2 °F 29.86 in North 1 mph 1 mph 85% 0.00 in 531 W/m2
16:50 80.3 °F 75.4 °F 29.86 in NE 1 mph 1 mph 85% 0.00 in 362 W/m2
16:55 80.3 °F 75 °F 29.85 in East 1 mph 1 mph 84% 0.00 in 260 W/m2
17:00 80.7 °F 75.4 °F 29.85 in NNE 2 mph 3 mph 84% 0.00 in 522 W/m2
17:05 80.8 °F 75.5 °F 29.85 in NNE 2 mph 3 mph 84% 0.00 in 480 W/m2
17:10 80.8 °F 75.5 °F 29.85 in NNW 2 mph 2 mph 84% 0.00 in 499 W/m2
17:15 80.8 °F 75.5 °F 29.85 in NNE 2 mph 2 mph 84% 0.00 in 512 W/m2
17:20 80.8 °F 75.5 °F 29.85 in North 2 mph 3 mph 84% 0.00 in 448 W/m2
17:25 80.8 °F 75.5 °F 29.85 in NNE 2 mph 3 mph 84% 0.00 in 473 W/m2
17:30 80.9 °F 74.9 °F 29.85 in North 2 mph 3 mph 82% 0.00 in 420 W/m2
17:35 81 °F 75 °F 29.85 in North 2 mph 3 mph 82% 0.00 in 413 W/m2
17:40 81 °F 74.6 °F 29.85 in NNE 2 mph 2 mph 81% 0.00 in 408 W/m2
17:45 81.1 °F 75.1 °F 29.85 in North 3 mph 3 mph 82% 0.00 in 378 W/m2
17:50 81 °F 75 °F 29.85 in NE 2 mph 3 mph 82% 0.00 in 329 W/m2
17:55 81 °F 74.6 °F 29.85 in NNE 2 mph 3 mph 81% 0.00 in 390 W/m2
18:00 81 °F 75 °F 29.85 in North 2 mph 2 mph 82% 0.00 in 367 W/m2
18:05 81 °F 75 °F 29.85 in NE 2 mph 3 mph 82% 0.00 in 341 W/m2
18:10 81 °F 74.6 °F 29.85 in NE 2 mph 3 mph 81% 0.00 in 323 W/m2
18:15 81 °F 74.6 °F 29.84 in NNE 3 mph 3 mph 81% 0.00 in 309 W/m2
18:20 81.1 °F 74.3 °F 29.84 in NNE 3 mph 3 mph 80% 0.00 in 295 W/m2
18:25 81.1 °F 74.3 °F 29.84 in NNE 3 mph 3 mph 80% 0.00 in 285 W/m2
18:30 81.1 °F 74.3 °F 29.84 in NNE 3 mph 3 mph 80% 0.00 in 269 W/m2
18:35 81.1 °F 74.3 °F 29.84 in NNE 3 mph 3 mph 80% 0.00 in 253 W/m2
18:40 81 °F 74.6 °F 29.84 in NNE 2 mph 2 mph 81% 0.00 in 236 W/m2
18:45 80.9 °F 74.5 °F 29.84 in North 2 mph 3 mph 81% 0.00 in 225 W/m2
18:50 81 °F 74.6 °F 29.84 in NNE 3 mph 3 mph 81% 0.00 in 211 W/m2
18:55 81 °F 74.6 °F 29.84 in NNE 2 mph 3 mph 81% 0.00 in 193 W/m2
19:00 80.9 °F 74.5 °F 29.83 in NNE 2 mph 2 mph 81% 0.00 in 183 W/m2
19:05 80.8 °F 74.8 °F 29.83 in North 2 mph 2 mph 82% 0.00 in 156 W/m2
19:10 80.6 °F 74.6 °F 29.83 in NW 2 mph 2 mph 82% 0.00 in 93 W/m2
19:15 80.5 °F 74.5 °F 29.83 in NNE 2 mph 2 mph 82% 0.00 in 88 W/m2
19:20 80.5 °F 74.5 °F 29.83 in NE 2 mph 2 mph 82% 0.00 in 79 W/m2
19:25 80.4 °F 74.4 °F 29.83 in North 2 mph 2 mph 82% 0.00 in 72 W/m2
19:30 80.3 °F 74.7 °F 29.83 in WSW 1 mph 3 mph 83% 0.00 in 65 W/m2
19:35 80.2 °F 74.6 °F 29.83 in NE 1 mph 3 mph 83% 0.00 in 63 W/m2
19:40 80.1 °F 74.5 °F 29.83 in West 1 mph 3 mph 83% 0.00 in 62 W/m2
19:45 80.1 °F 74.5 °F 29.83 in NE 1 mph 3 mph 83% 0.00 in 79 W/m2
19:50 79.9 °F 74.6 °F 29.83 in SSE 1 mph 1 mph 84% 0.00 in 51 W/m2
19:55 79.8 °F 74.5 °F 29.83 in NE 1 mph 1 mph 84% 0.00 in 44 W/m2
20:00 79.7 °F 74.4 °F 29.83 in NW 1 mph 1 mph 84% 0.00 in 39 W/m2
20:05 79.6 °F 74.3 °F 29.84 in NNE 1 mph 2 mph 84% 0.00 in 32 W/m2
20:10 79.6 °F 74.3 °F 29.84 in WNW 1 mph 1 mph 84% 0.00 in 28 W/m2
20:15 79.5 °F 74.2 °F 29.84 in NNW 1 mph 1 mph 84% 0.00 in 25 W/m2
20:20 79.5 °F 74.2 °F 29.84 in NE 1 mph 1 mph 84% 0.00 in 18 W/m2
20:25 79.4 °F 74.5 °F 29.84 in East 1 mph 1 mph 85% 0.00 in 14 W/m2
Sand Point, Michigan, USA
Compliments of Weather Underground - 2 mb